createdAt,value
2023-01-19T00:02:26.824Z,47.59
2023-01-19T00:05:16.160Z,47.44
2023-01-19T00:08:14.804Z,47.64
2023-01-19T00:11:05.362Z,47.31
2023-01-19T00:13:54.009Z,47.12
2023-01-19T00:16:42.658Z,47.46
2023-01-19T00:19:33.731Z,46.97
2023-01-19T00:22:22.385Z,47.08
2023-01-19T00:25:11.583Z,46.98
2023-01-19T00:28:02.057Z,46.92
2023-01-19T00:30:51.949Z,47.47
2023-01-19T00:33:40.592Z,47.25
2023-01-19T00:36:29.502Z,47.21
2023-01-19T00:39:18.245Z,46.92
2023-01-19T00:42:24.420Z,47.24
2023-01-19T00:45:18.551Z,47.31
2023-01-19T00:48:07.564Z,47.17
2023-01-19T00:50:56.245Z,47.40
2023-01-19T00:53:44.954Z,47.34
2023-01-19T00:56:33.660Z,47.41
2023-01-19T00:59:22.343Z,46.98
2023-01-19T01:02:12.601Z,47.28
2023-01-19T01:05:02.798Z,47.40
2023-01-19T01:07:51.474Z,47.46
2023-01-19T01:10:40.075Z,47.70
2023-01-19T01:13:29.700Z,47.20
2023-01-19T01:16:18.758Z,47.31
2023-01-19T01:19:08.971Z,47.38
2023-01-19T01:21:57.664Z,47.12
2023-01-19T01:24:46.563Z,47.57
2023-01-19T01:27:35.221Z,47.57
2023-01-19T01:30:24.239Z,47.32
2023-01-19T01:33:13.326Z,47.61
2023-01-19T01:36:03.367Z,47.20
2023-01-19T01:38:52.014Z,47.12
2023-01-19T01:41:40.552Z,47.52
2023-01-19T01:44:53.121Z,47.93
2023-01-19T01:47:44.856Z,47.77
2023-01-19T01:50:36.062Z,47.98
2023-01-19T01:53:26.124Z,47.98
2023-01-19T01:56:18.248Z,47.90
2023-01-19T01:59:08.881Z,47.75
2023-01-19T02:02:17.348Z,48.38
2023-01-19T02:05:09.765Z,47.88
2023-01-19T02:08:21.482Z,47.82
2023-01-19T02:11:29.184Z,47.91
2023-01-19T02:14:18.965Z,47.55
2023-01-19T02:17:07.868Z,47.70
2023-01-19T02:19:57.986Z,48.00
2023-01-19T02:22:49.242Z,47.74
2023-01-19T02:25:40.527Z,47.70
2023-01-19T02:28:30.099Z,47.77
2023-01-19T02:31:19.491Z,47.29
2023-01-19T02:34:10.222Z,47.16
2023-01-19T02:37:02.096Z,47.56
2023-01-19T02:39:54.887Z,47.36
2023-01-19T02:42:48.111Z,47.31
2023-01-19T02:45:38.682Z,47.26
2023-01-19T02:48:27.451Z,47.60
2023-01-19T02:51:18.342Z,47.41
2023-01-19T02:54:14.927Z,47.33
2023-01-19T02:57:28.435Z,47.72
2023-01-19T03:00:24.782Z,47.27
2023-01-19T03:03:24.373Z,47.63
2023-01-19T03:06:19.486Z,47.31
2023-01-19T03:09:13.890Z,47.60
2023-01-19T03:12:06.807Z,47.58
2023-01-19T03:15:01.501Z,47.32
2023-01-19T03:17:53.276Z,47.58
2023-01-19T03:20:42.207Z,47.62
2023-01-19T03:23:33.131Z,47.88
2023-01-19T03:26:26.283Z,47.43
2023-01-19T03:29:16.221Z,47.99
2023-01-19T03:32:15.537Z,48.15
2023-01-19T03:35:10.292Z,48.00
2023-01-19T03:38:01.054Z,47.98
2023-01-19T03:40:53.843Z,48.07
2023-01-19T03:43:43.005Z,48.13
2023-01-19T03:46:32.493Z,48.43
2023-01-19T03:49:21.407Z,48.23
2023-01-19T03:52:11.414Z,48.15
2023-01-19T03:55:00.043Z,48.03
2023-01-19T03:57:51.522Z,47.94
2023-01-19T04:00:40.405Z,47.64
2023-01-19T04:03:29.073Z,47.88
2023-01-19T04:06:18.146Z,47.68
2023-01-19T04:09:08.386Z,47.91
2023-01-19T04:11:57.263Z,47.76
2023-01-19T04:14:48.540Z,47.87
2023-01-19T04:17:37.173Z,47.95
2023-01-19T04:20:27.077Z,48.13
2023-01-19T04:23:19.519Z,48.36
2023-01-19T04:26:10.403Z,47.85
2023-01-19T04:28:59.778Z,47.75
2023-01-19T04:31:48.503Z,48.05
2023-01-19T04:34:37.082Z,48.00
2023-01-19T04:37:25.729Z,47.82
2023-01-19T04:40:14.537Z,47.70
2023-01-19T04:43:04.627Z,48.15
2023-01-19T04:45:53.330Z,47.77
2023-01-19T04:48:42.370Z,47.86
2023-01-19T04:51:31.036Z,48.15
2023-01-19T04:54:19.866Z,48.19
2023-01-19T04:57:08.561Z,47.56
2023-01-19T04:59:59.875Z,47.69
2023-01-19T05:02:48.721Z,47.39
2023-01-19T05:05:37.364Z,47.51
2023-01-19T05:08:25.987Z,47.97
2023-01-19T05:11:14.686Z,47.50
2023-01-19T05:14:03.328Z,47.77
2023-01-19T05:16:53.384Z,47.52
2023-01-19T05:19:42.306Z,47.68
2023-01-19T05:22:31.286Z,47.31
2023-01-19T05:25:20.398Z,47.66
2023-01-19T05:28:09.041Z,47.86
2023-01-19T05:30:57.874Z,47.97
2023-01-19T05:33:48.279Z,47.42
2023-01-19T05:36:37.061Z,47.72
2023-01-19T05:39:26.723Z,47.96
2023-01-19T05:42:15.423Z,48.07
2023-01-19T05:45:04.113Z,48.25
2023-01-19T05:47:52.720Z,47.78
2023-01-19T05:50:42.898Z,47.74
2023-01-19T05:53:31.553Z,48.13
2023-01-19T05:56:20.210Z,48.13
2023-01-19T05:59:08.892Z,48.46
2023-01-19T06:01:57.544Z,47.98
2023-01-19T06:04:49.161Z,48.47
2023-01-19T06:07:39.231Z,48.23
2023-01-19T06:10:27.811Z,48.14
2023-01-19T06:13:17.128Z,48.30
2023-01-19T06:16:06.040Z,48.08
2023-01-19T06:18:55.593Z,47.75
2023-01-19T06:21:50.762Z,47.81
2023-01-19T06:24:40.781Z,47.93
2023-01-19T06:27:29.561Z,47.92
2023-01-19T06:30:18.761Z,48.33
2023-01-19T06:33:07.386Z,47.78
2023-01-19T06:35:56.528Z,47.80
2023-01-19T06:38:45.418Z,48.14
2023-01-19T06:41:35.662Z,48.00
2023-01-19T06:44:24.226Z,48.35
2023-01-19T06:47:14.992Z,48.29
2023-01-19T06:50:04.371Z,48.27
2023-01-19T06:52:53.024Z,48.04
2023-01-19T06:55:41.625Z,47.72
2023-01-19T06:58:32.052Z,48.26
2023-01-19T07:01:20.786Z,48.17
2023-01-19T07:04:13.907Z,48.05
2023-01-19T07:07:02.571Z,48.11
2023-01-19T07:09:53.815Z,47.53
2023-01-19T07:12:44.077Z,47.70
2023-01-19T07:15:34.493Z,48.16
2023-01-19T07:18:23.301Z,47.71
2023-01-19T07:21:12.169Z,48.14
2023-01-19T07:24:00.846Z,48.02
2023-01-19T07:26:49.567Z,47.71
2023-01-19T07:29:38.200Z,47.66
2023-01-19T07:32:28.301Z,48.26
2023-01-19T07:35:17.156Z,48.16
2023-01-19T07:38:06.178Z,48.46
2023-01-19T07:41:01.864Z,48.26
2023-01-19T07:43:51.350Z,48.55
2023-01-19T07:46:42.200Z,48.21
2023-01-19T07:49:32.361Z,47.95
2023-01-19T07:52:21.300Z,47.92
2023-01-19T07:55:10.790Z,47.52
2023-01-19T07:57:59.890Z,47.89
2023-01-19T08:00:48.564Z,47.31
2023-01-19T08:03:37.396Z,47.35
2023-01-19T08:06:29.594Z,47.38
2023-01-19T08:09:19.167Z,47.43
2023-01-19T08:12:08.237Z,47.53
2023-01-19T08:14:56.929Z,47.11
2023-01-19T08:17:45.736Z,47.18
2023-01-19T08:20:34.733Z,47.05
2023-01-19T08:23:24.754Z,47.14
2023-01-19T08:26:20.536Z,47.70
2023-01-19T08:29:09.150Z,47.66
2023-01-19T08:31:59.997Z,47.23
2023-01-19T08:34:48.904Z,47.12
2023-01-19T08:37:37.460Z,47.25
2023-01-19T08:40:30.307Z,47.38
2023-01-19T08:43:19.607Z,47.05
2023-01-19T08:46:08.370Z,46.70
2023-01-19T08:48:56.993Z,47.01
2023-01-19T08:51:47.397Z,46.92
2023-01-19T08:54:36.015Z,46.68
2023-01-19T08:57:26.131Z,46.80
2023-01-19T09:00:16.059Z,46.27
2023-01-19T09:03:05.513Z,46.37
2023-01-19T09:05:54.525Z,46.10
2023-01-19T09:08:43.349Z,46.31
2023-01-19T09:11:31.988Z,46.08
2023-01-19T09:14:21.979Z,45.97
2023-01-19T09:17:10.721Z,46.10
2023-01-19T09:19:59.478Z,46.03
2023-01-19T09:22:48.409Z,45.66
2023-01-19T09:25:36.979Z,46.03
2023-01-19T09:28:25.936Z,45.81
2023-01-19T09:31:16.420Z,45.77
2023-01-19T09:34:05.376Z,46.06
2023-01-19T09:36:54.256Z,46.12
2023-01-19T09:39:42.907Z,46.02
2023-01-19T09:42:36.168Z,46.24
2023-01-19T09:45:31.175Z,46.02
2023-01-19T09:48:32.513Z,46.72
2023-01-19T09:51:23.647Z,45.79
2023-01-19T09:54:15.745Z,45.58
2023-01-19T09:57:04.491Z,45.51
2023-01-19T09:59:57.909Z,45.85
2023-01-19T10:02:51.849Z,45.75
2023-01-19T10:05:44.753Z,45.93
2023-01-19T10:08:37.802Z,45.99
2023-01-19T10:11:51.630Z,46.00
2023-01-19T10:14:46.742Z,46.19
2023-01-19T10:17:41.622Z,46.13
2023-01-19T10:20:33.968Z,45.71
2023-01-19T10:23:41.419Z,45.92
2023-01-19T10:26:34.392Z,45.95
2023-01-19T10:29:25.879Z,45.53
2023-01-19T10:32:19.883Z,45.94
2023-01-19T10:35:21.730Z,46.07
2023-01-19T10:38:14.168Z,45.95
2023-01-19T10:41:07.082Z,45.72
2023-01-19T10:44:01.434Z,46.15
2023-01-19T10:46:50.566Z,45.91
2023-01-19T10:49:40.602Z,46.23
2023-01-19T10:52:32.782Z,46.26
2023-01-19T10:55:31.760Z,46.11
2023-01-19T10:58:32.377Z,46.39
2023-01-19T11:01:23.776Z,46.53
2023-01-19T11:04:24.042Z,46.54
2023-01-19T11:07:16.607Z,46.27
2023-01-19T11:10:22.497Z,46.33
2023-01-19T11:13:13.534Z,46.23
2023-01-19T11:16:10.417Z,46.52
2023-01-19T11:19:02.058Z,46.10
2023-01-19T11:21:50.755Z,46.55
2023-01-19T11:24:40.256Z,46.58
2023-01-19T11:27:29.257Z,46.66
2023-01-19T11:30:21.307Z,46.30
2023-01-19T11:33:25.116Z,46.22
2023-01-19T11:36:20.921Z,46.26
2023-01-19T11:39:23.630Z,46.38
2023-01-19T11:42:13.938Z,46.24
2023-01-19T11:45:06.684Z,46.26
2023-01-19T11:47:57.028Z,46.56
2023-01-19T11:50:47.800Z,46.48
2023-01-19T11:53:37.403Z,46.43
2023-01-19T11:56:29.044Z,46.18
2023-01-19T11:59:17.750Z,46.31
2023-01-19T12:02:16.289Z,46.06
2023-01-19T12:05:08.395Z,46.14
2023-01-19T12:08:00.695Z,45.96
2023-01-19T12:10:49.785Z,46.15
2023-01-19T12:13:38.870Z,46.35
2023-01-19T12:16:31.334Z,46.21
2023-01-19T12:19:22.681Z,46.23
2023-01-19T12:22:13.439Z,46.41
2023-01-19T12:25:07.790Z,46.17
2023-01-19T12:27:56.879Z,46.18
2023-01-19T12:30:45.707Z,46.09
2023-01-19T12:33:37.467Z,46.30
2023-01-19T12:36:40.134Z,46.13
2023-01-19T12:39:29.895Z,46.15
2023-01-19T12:42:21.444Z,46.17
2023-01-19T12:45:15.363Z,46.10
2023-01-19T12:48:04.676Z,46.10
2023-01-19T12:50:53.479Z,46.31
2023-01-19T12:53:42.117Z,46.23
2023-01-19T12:56:32.376Z,46.22
2023-01-19T12:59:26.621Z,46.14
2023-01-19T13:02:42.989Z,46.58
2023-01-19T13:05:55.969Z,46.49
2023-01-19T13:08:58.533Z,46.82
2023-01-19T13:12:20.718Z,46.50
2023-01-19T13:15:36.593Z,46.62
2023-01-19T13:18:26.804Z,46.59
2023-01-19T13:21:15.702Z,46.88
2023-01-19T13:24:06.122Z,46.77
2023-01-19T13:26:57.485Z,46.76
2023-01-19T13:29:46.284Z,46.91
2023-01-19T13:32:36.433Z,46.89
2023-01-19T13:35:25.762Z,46.89
2023-01-19T13:38:24.836Z,46.95
2023-01-19T13:41:17.209Z,46.68
2023-01-19T13:44:09.448Z,46.88
2023-01-19T13:46:59.758Z,47.02
2023-01-19T13:49:52.015Z,46.85
2023-01-19T13:52:45.811Z,46.83
2023-01-19T13:55:34.604Z,47.05
2023-01-19T13:58:23.690Z,47.11
2023-01-19T14:01:23.155Z,46.94
2023-01-19T14:04:35.980Z,47.01
2023-01-19T14:07:27.171Z,47.18
2023-01-19T14:10:17.764Z,46.94
2023-01-19T14:13:08.582Z,46.89
2023-01-19T14:15:59.314Z,47.15
2023-01-19T14:18:48.168Z,46.98
2023-01-19T14:21:41.187Z,47.20
2023-01-19T14:24:33.142Z,46.88
2023-01-19T14:27:24.312Z,47.07
2023-01-19T14:30:25.169Z,47.02
2023-01-19T14:33:35.643Z,47.42
2023-01-19T14:36:29.187Z,46.79
2023-01-19T14:39:21.426Z,47.17
2023-01-19T14:42:17.740Z,47.13
2023-01-19T14:45:14.231Z,46.63
2023-01-19T14:48:04.394Z,43.17
2023-01-19T14:51:03.870Z,33.84
2023-01-19T14:53:57.429Z,29.60
2023-01-19T14:56:47.835Z,27.94
2023-01-19T14:59:37.898Z,26.78
2023-01-19T15:02:26.720Z,26.44
2023-01-19T15:05:15.988Z,29.74
2023-01-19T15:08:05.228Z,32.50
2023-01-19T15:10:56.433Z,33.99
2023-01-19T15:13:45.744Z,34.59
2023-01-19T15:16:36.311Z,34.98
2023-01-19T15:19:24.980Z,35.83
2023-01-19T15:22:14.909Z,35.84
2023-01-19T15:25:03.528Z,36.42
2023-01-19T15:27:52.422Z,36.55
2023-01-19T15:30:41.348Z,36.62
2023-01-19T15:33:31.860Z,37.06
2023-01-19T15:36:21.841Z,37.34
2023-01-19T15:39:10.724Z,37.76
2023-01-19T15:41:59.476Z,37.63
2023-01-19T15:44:51.348Z,37.86
2023-01-19T15:47:40.280Z,37.79
2023-01-19T15:50:30.272Z,38.05
2023-01-19T15:53:20.436Z,38.35
2023-01-19T15:56:15.093Z,38.14
2023-01-19T15:59:03.700Z,37.41
2023-01-19T16:01:52.484Z,37.55
2023-01-19T16:04:41.213Z,37.27
2023-01-19T16:07:31.269Z,37.18
2023-01-19T16:10:20.298Z,37.26
2023-01-19T16:13:08.920Z,37.03
2023-01-19T16:15:57.501Z,37.40
2023-01-19T16:18:46.248Z,38.32
2023-01-19T16:21:34.962Z,38.08
2023-01-19T16:24:25.206Z,38.82
2023-01-19T16:27:13.888Z,39.20
2023-01-19T16:30:04.903Z,39.38
2023-01-19T16:32:53.754Z,39.74
2023-01-19T16:35:42.366Z,39.83
2023-01-19T16:38:31.460Z,39.13
2023-01-19T16:41:21.608Z,39.97
2023-01-19T16:44:12.328Z,40.41
2023-01-19T16:47:00.989Z,40.77
2023-01-19T16:49:49.630Z,40.37
2023-01-19T16:52:38.202Z,40.56
2023-01-19T16:55:26.972Z,40.50
2023-01-19T16:58:16.997Z,40.99
2023-01-19T17:01:09.202Z,40.66
2023-01-19T17:03:58.147Z,41.16
2023-01-19T17:06:47.683Z,41.59
2023-01-19T17:09:36.422Z,41.08
2023-01-19T17:12:25.356Z,41.33
2023-01-19T17:15:15.493Z,41.23
2023-01-19T17:18:06.486Z,41.33
2023-01-19T17:20:55.097Z,41.50
2023-01-19T17:23:44.227Z,41.47
2023-01-19T17:26:32.953Z,41.23
2023-01-19T17:29:21.611Z,41.29
2023-01-19T17:32:11.696Z,41.46
2023-01-19T17:35:00.330Z,42.00
2023-01-19T17:37:49.023Z,42.01
2023-01-19T17:40:37.720Z,41.90
2023-01-19T17:43:26.499Z,42.28
2023-01-19T17:46:15.247Z,42.35
2023-01-19T17:49:07.237Z,42.71
2023-01-19T17:51:56.015Z,42.60
2023-01-19T17:54:44.654Z,42.62
2023-01-19T17:57:33.273Z,42.27
2023-01-19T18:00:22.541Z,42.06
2023-01-19T18:03:11.259Z,42.65
2023-01-19T18:06:01.335Z,43.13
2023-01-19T18:08:50.387Z,42.92
2023-01-19T18:11:39.015Z,42.25
2023-01-19T18:14:27.670Z,42.73
2023-01-19T18:17:16.322Z,42.01
2023-01-19T18:20:05.814Z,41.89
2023-01-19T18:22:55.856Z,41.87
2023-01-19T18:25:44.559Z,41.68
2023-01-19T18:28:33.744Z,41.88
2023-01-19T18:31:22.435Z,41.84
2023-01-19T18:34:11.204Z,42.19
2023-01-19T18:37:00.288Z,42.53
2023-01-19T18:39:50.440Z,42.91
2023-01-19T18:42:39.187Z,42.58
2023-01-19T18:45:27.818Z,42.95
2023-01-19T18:48:18.042Z,43.16
2023-01-19T18:51:07.814Z,42.95
2023-01-19T18:53:56.539Z,42.99
2023-01-19T18:56:46.565Z,43.20
2023-01-19T18:59:35.375Z,43.48
2023-01-19T19:02:24.290Z,43.57
2023-01-19T19:05:13.147Z,43.51
2023-01-19T19:08:01.820Z,43.24
2023-01-19T19:10:50.430Z,43.59
2023-01-19T19:13:40.399Z,43.67
2023-01-19T19:16:29.806Z,43.67
2023-01-19T19:19:19.329Z,43.62
2023-01-19T19:22:07.914Z,43.46
2023-01-19T19:24:56.528Z,43.43
2023-01-19T19:27:45.508Z,43.64
2023-01-19T19:30:37.813Z,43.62
2023-01-19T19:33:27.143Z,43.57
2023-01-19T19:36:16.328Z,43.62
2023-01-19T19:39:05.071Z,43.62
2023-01-19T19:41:53.697Z,43.58
2023-01-19T19:44:42.357Z,43.79
2023-01-19T19:47:33.820Z,43.96
2023-01-19T19:50:22.451Z,43.96
2023-01-19T19:53:11.032Z,44.17
2023-01-19T19:56:01.158Z,44.04
2023-01-19T19:58:50.253Z,44.25
2023-01-19T20:01:39.192Z,44.22
2023-01-19T20:04:29.347Z,44.04
2023-01-19T20:07:18.114Z,44.20
2023-01-19T20:10:07.895Z,44.56
2023-01-19T20:12:56.615Z,44.58
2023-01-19T20:15:45.420Z,44.09
2023-01-19T20:18:34.997Z,44.16
2023-01-19T20:21:27.150Z,44.77
2023-01-19T20:24:18.235Z,44.72
2023-01-19T20:27:08.290Z,44.52
2023-01-19T20:29:58.143Z,44.89
2023-01-19T20:32:46.906Z,44.44
2023-01-19T20:35:35.902Z,44.45
2023-01-19T20:38:25.980Z,44.18
2023-01-19T20:41:16.093Z,44.40
2023-01-19T20:44:08.337Z,44.66
2023-01-19T20:46:57.128Z,44.64
2023-01-19T20:49:45.797Z,44.60
2023-01-19T20:52:35.763Z,44.49
2023-01-19T20:55:25.803Z,44.57
2023-01-19T20:58:14.909Z,44.50
2023-01-19T21:01:11.746Z,44.48
2023-01-19T21:04:00.781Z,44.46
2023-01-19T21:06:49.632Z,44.95
2023-01-19T21:09:39.738Z,45.08
2023-01-19T21:12:30.026Z,45.05
2023-01-19T21:15:19.170Z,45.41
2023-01-19T21:18:07.928Z,45.48
2023-01-19T21:20:57.564Z,45.03
2023-01-19T21:23:46.889Z,45.42
2023-01-19T21:26:36.060Z,45.88
2023-01-19T21:29:26.497Z,45.70
2023-01-19T21:32:15.243Z,46.32
2023-01-19T21:35:04.335Z,45.43
2023-01-19T21:37:52.976Z,45.69
2023-01-19T21:40:41.573Z,45.63
2023-01-19T21:43:30.157Z,46.13
2023-01-19T21:46:22.186Z,46.34
2023-01-19T21:49:15.664Z,46.08
2023-01-19T21:52:04.404Z,46.29
2023-01-19T21:54:53.239Z,46.02
2023-01-19T21:57:42.075Z,46.58
2023-01-19T22:00:38.581Z,46.38
2023-01-19T22:03:28.637Z,46.86
2023-01-19T22:06:17.251Z,46.31
2023-01-19T22:09:07.243Z,46.46
2023-01-19T22:11:55.825Z,46.20
2023-01-19T22:14:44.422Z,46.33
2023-01-19T22:17:33.007Z,46.72
2023-01-19T22:20:22.910Z,46.61
2023-01-19T22:23:11.988Z,46.47
2023-01-19T22:26:00.933Z,46.75
2023-01-19T22:28:49.849Z,46.48
2023-01-19T22:31:39.163Z,46.36
2023-01-19T22:34:27.908Z,46.76
2023-01-19T22:37:17.858Z,46.34
2023-01-19T22:40:07.349Z,46.37
2023-01-19T22:42:56.077Z,46.44
2023-01-19T22:45:44.744Z,46.32
2023-01-19T22:48:35.733Z,46.57
2023-01-19T22:51:25.167Z,46.85
2023-01-19T22:54:15.955Z,46.35
2023-01-19T22:57:19.744Z,46.65
2023-01-19T23:00:15.640Z,46.48
2023-01-19T23:03:04.700Z,46.50
2023-01-19T23:05:53.565Z,46.53
2023-01-19T23:08:42.963Z,46.42
2023-01-19T23:11:36.018Z,46.63
2023-01-19T23:14:24.756Z,46.52
2023-01-19T23:17:13.585Z,46.78
2023-01-19T23:20:02.226Z,46.99
2023-01-19T23:22:53.012Z,46.68
2023-01-19T23:25:41.559Z,46.92
2023-01-19T23:28:34.038Z,47.20
2023-01-19T23:31:24.133Z,47.21
2023-01-19T23:34:13.476Z,46.82
2023-01-19T23:37:02.136Z,46.99
2023-01-19T23:39:50.814Z,46.75
2023-01-19T23:42:39.415Z,46.99
2023-01-19T23:45:29.483Z,47.27
2023-01-19T23:48:18.205Z,47.15
2023-01-19T23:51:08.073Z,47.02
2023-01-19T23:53:57.842Z,46.92
2023-01-19T23:56:46.494Z,47.08
2023-01-19T23:59:35.220Z,47.08
